Time;durP1;ratioP1;P1;durP2;ratioP2;P2;SDS_P1;SDS_P2;PMS_P1;PMS_P2;Temp;Humidity;BMP_temperature;BMP_pressure;BME280_temperature;BME280_humidity;BME280_pressure;Samples;Min_cycle;Max_cycle;Signal;HPM_P1;HPM_P2
2024/01/09 00:00:17;;;;;;;0.73;0.73;;;;;;;-5.71;75.99;103195.94;5092559;28;20028;-56
2024/01/09 00:02:43;;;;;;;0.68;0.68;;;;;;;-5.64;75.44;103186.91;5093399;28;20028;-55
2024/01/09 00:05:08;;;;;;;0.60;0.60;;;;;;;-5.74;74.40;103183.88;5093179;28;20024;-55
2024/01/09 00:07:34;;;;;;;0.70;0.70;;;;;;;-5.65;75.70;103181.69;5092404;28;20032;-54
2024/01/09 00:09:59;;;;;;;0.70;0.70;;;;;;;-5.78;75.07;103189.22;5093683;28;20369;-54
2024/01/09 00:12:24;;;;;;;0.77;0.77;;;;;;;-5.81;75.73;103183.75;5093276;28;20028;-55
2024/01/09 00:14:50;;;;;;;0.70;0.70;;;;;;;-5.81;75.68;103184.69;5092790;28;20020;-55
2024/01/09 00:17:15;;;;;;;0.70;0.70;;;;;;;-5.79;76.56;103192.41;5093161;28;20031;-54
2024/01/09 00:19:40;;;;;;;0.70;0.70;;;;;;;-5.79;76.56;103182.38;5093310;28;20031;-56
2024/01/09 00:22:05;;;;;;;0.70;0.70;;;;;;;-5.82;76.15;103182.88;5092454;28;20073;-54
2024/01/09 00:24:31;;;;;;;0.70;0.70;;;;;;;-5.72;76.34;103189.09;5093162;28;20035;-55
2024/01/09 00:26:56;;;;;;;0.70;0.70;;;;;;;-5.83;76.82;103182.66;5093431;27;20519;-54
2024/01/09 00:29:21;;;;;;;0.60;0.60;;;;;;;-5.90;77.47;103183.47;5092195;28;20024;-55
2024/01/09 00:31:47;;;;;;;0.70;0.70;;;;;;;-5.88;76.62;103186.19;5093268;28;20539;-55
2024/01/09 00:34:12;;;;;;;0.80;0.80;;;;;;;-5.95;77.45;103180.34;5092601;28;20043;-54
2024/01/09 00:36:44;;;;;;;0.80;0.80;;;;;;;-5.86;77.00;103187.28;5092292;28;20111;-55
2024/01/09 00:39:12;;;;;;;0.70;0.70;;;;;;;-5.96;78.08;103177.63;5092782;28;20052;-55
2024/01/09 00:41:38;;;;;;;0.80;0.80;;;;;;;-5.96;77.47;103188.56;5093230;28;20027;-55
2024/01/09 00:44:04;;;;;;;0.70;0.70;;;;;;;-5.94;77.92;103183.72;5092440;28;20384;-55
2024/01/09 00:46:29;;;;;;;0.75;0.75;;;;;;;-5.97;77.71;103184.22;5092728;28;20028;-56
2024/01/09 00:48:54;;;;;;;0.77;0.77;;;;;;;-5.98;78.22;103179.94;5092230;28;20035;-56
2024/01/09 00:51:20;;;;;;;0.70;0.70;;;;;;;-6.00;77.92;103191.41;5092605;28;20028;-55
2024/01/09 00:53:45;;;;;;;0.77;0.77;;;;;;;-5.90;77.82;103185.06;5093200;28;20100;-55
2024/01/09 00:56:10;;;;;;;0.80;0.80;;;;;;;-6.03;78.66;103188.50;5091753;28;20375;-55
2024/01/09 00:58:36;;;;;;;0.73;0.73;;;;;;;-5.92;78.52;103183.97;5092839;28;20036;-55
2024/01/09 01:01:01;;;;;;;0.80;0.80;;;;;;;-6.04;78.10;103179.16;5092905;28;20082;-55
2024/01/09 01:03:26;;;;;;;0.70;0.70;;;;;;;-6.03;78.56;103175.00;5091850;28;20454;-55
2024/01/09 01:05:51;;;;;;;0.80;0.80;;;;;;;-5.96;78.01;103178.50;5092766;28;20021;-56
2024/01/09 01:08:17;;;;;;;0.70;0.70;;;;;;;-6.07;78.11;103181.22;5092657;28;20065;-55
2024/01/09 01:10:42;;;;;;;0.80;0.80;;;;;;;-6.03;78.41;103182.53;5092132;28;20052;-54
2024/01/09 01:13:07;;;;;;;0.80;0.80;;;;;;;-6.06;78.43;103180.53;5092667;28;20025;-56
2024/01/09 01:15:33;;;;;;;0.80;0.80;;;;;;;-6.07;78.17;103186.25;5092613;28;20433;-55
2024/01/09 01:17:58;;;;;;;0.80;0.80;;;;;;;-6.14;78.83;103181.13;5091941;28;20028;-55
2024/01/09 01:20:23;;;;;;;0.80;0.80;;;;;;;-6.03;79.59;103185.06;5092285;28;20020;-54
2024/01/09 01:22:48;;;;;;;0.80;0.80;;;;;;;-6.17;78.73;103186.63;5092471;28;20488;-55
2024/01/09 01:25:14;;;;;;;0.70;0.70;;;;;;;-6.18;79.23;103176.41;5091753;28;20035;-56
2024/01/09 01:27:39;;;;;;;0.80;0.80;;;;;;;-6.20;79.37;103183.69;5092410;28;20039;-55
2024/01/09 01:30:05;;;;;;;0.80;0.80;;;;;;;-6.09;79.31;103185.16;5092679;28;20024;-55
2024/01/09 01:32:31;;;;;;;0.70;0.70;;;;;;;-6.24;78.87;103194.03;5091377;28;20395;-53
2024/01/09 01:34:56;;;;;;;0.80;0.80;;;;;;;-6.21;78.97;103191.94;5092431;28;20027;-56
2024/01/09 01:37:21;;;;;;;0.80;0.80;;;;;;;-6.13;78.96;103190.47;5092156;28;20549;-54
2024/01/09 01:39:47;;;;;;;0.70;0.70;;;;;;;-6.16;78.77;103188.44;5091503;28;20507;-54
2024/01/09 01:42:12;;;;;;;0.70;0.70;;;;;;;-6.22;78.83;103191.72;5092517;28;20031;-56
2024/01/09 01:44:37;;;;;;;0.70;0.70;;;;;;;-6.24;79.17;103193.13;5092381;28;20409;-54
2024/01/09 01:47:04;;;;;;;0.80;0.80;;;;;;;-6.16;78.84;103192.53;5094207;28;20028;-55
2024/01/09 01:49:30;;;;;;;0.73;0.73;;;;;;;-6.30;78.94;103184.06;5095895;28;20024;-55
2024/01/09 01:51:55;;;;;;;0.70;0.70;;;;;;;-6.19;78.81;103187.13;5096026;28;20273;-55
2024/01/09 01:54:22;;;;;;;0.70;0.70;;;;;;;-6.30;79.53;103191.59;5095208;28;20042;-56
2024/01/09 01:56:48;;;;;;;0.70;0.70;;;;;;;-6.32;79.09;103187.06;5096076;28;20036;-55
2024/01/09 01:59:15;;;;;;;0.70;0.70;;;;;;;-6.23;79.82;103189.94;5094845;28;20024;-55
2024/01/09 02:01:43;;;;;;;0.75;0.75;;;;;;;-6.40;80.05;103188.56;5095891;28;20044;-56
2024/01/09 02:04:08;;;;;;;;;;;;;;;-6.27;80.68;103183.59;5096063;28;20035;-56
2024/01/09 02:06:34;;;;;;;0.90;0.90;;;;;;;-6.35;79.90;103186.66;5094746;28;19911;-55
2024/01/09 02:08:59;;;;;;;0.80;0.80;;;;;;;-6.29;80.50;103185.91;5095701;28;20028;-55
2024/01/09 02:11:25;;;;;;;0.80;0.80;;;;;;;-6.42;80.35;103187.44;5095496;28;20093;-56
2024/01/09 02:13:50;;;;;;;0.70;0.70;;;;;;;-6.42;81.52;103182.41;5095008;28;20024;-55
2024/01/09 02:16:15;;;;;;;0.70;0.70;;;;;;;-6.45;80.63;103182.00;5095320;28;20042;-54
2024/01/09 02:18:41;;;;;;;0.70;0.70;;;;;;;-6.50;81.23;103190.50;5095382;28;20119;-54
2024/01/09 02:21:06;;;;;;;0.70;0.70;;;;;;;-6.41;81.61;103180.81;5094835;28;20032;-55
2024/01/09 02:23:31;;;;;;;0.80;0.80;;;;;;;-6.60;82.85;103179.94;5095104;28;20016;-55
2024/01/09 02:25:57;;;;;;;0.70;0.70;;;;;;;-6.47;82.33;103184.31;5095503;28;20062;-55
2024/01/09 02:28:30;;;;;;;0.80;0.80;;;;;;;-6.54;82.89;103176.63;5094451;28;20046;-55
2024/01/09 02:30:56;;;;;;;0.75;0.75;;;;;;;-6.49;83.23;103174.78;5095434;28;20042;-56
2024/01/09 02:33:22;;;;;;;0.80;0.80;;;;;;;-6.49;83.25;103174.78;5094854;28;20424;-55
2024/01/09 02:35:47;;;;;;;0.73;0.73;;;;;;;-6.62;83.51;103167.19;5094372;28;20051;-55
2024/01/09 02:38:12;;;;;;;0.73;0.73;;;;;;;-6.62;83.32;103174.72;5094799;28;20376;-57
2024/01/09 02:40:38;;;;;;;0.73;0.73;;;;;;;-6.65;84.44;103172.69;5095319;28;20028;-56
2024/01/09 02:43:04;;;;;;;0.70;0.70;;;;;;;-6.66;84.92;103165.84;5094531;28;20020;-55
2024/01/09 02:45:30;;;;;;;0.70;0.70;;;;;;;-6.66;84.72;103160.84;5094959;28;20047;-56
2024/01/09 02:47:55;;;;;;;0.70;0.70;;;;;;;-6.65;85.48;103166.75;5094761;28;20471;-54
2024/01/09 02:50:20;;;;;;;0.90;0.90;;;;;;;-6.66;85.75;103170.88;5093812;28;20028;-55
2024/01/09 02:52:46;;;;;;;0.77;0.77;;;;;;;-6.57;85.82;103167.78;5095102;28;20170;-56
2024/01/09 02:55:12;;;;;;;0.80;0.80;;;;;;;-6.69;85.46;103165.41;5094726;28;20020;-56
2024/01/09 02:57:40;;;;;;;0.70;0.70;;;;;;;-6.67;85.46;103163.16;5094072;28;20157;-56
2024/01/09 03:00:10;;;;;;;0.80;0.80;;;;;;;-6.59;85.82;103167.59;5094831;28;20077;-55
2024/01/09 03:02:36;;;;;;;0.70;0.70;;;;;;;-6.74;85.92;103161.38;5094077;28;20023;-55
2024/01/09 03:05:07;;;;;;;0.70;0.70;;;;;;;-6.69;86.12;103164.53;5094591;28;20020;-55
2024/01/09 03:07:33;;;;;;;0.90;0.90;;;;;;;-6.76;86.07;103156.84;5094502;28;20024;-56
2024/01/09 03:09:59;;;;;;;0.90;0.90;;;;;;;-6.76;86.17;103157.78;5093862;28;20035;-56
2024/01/09 03:12:24;;;;;;;0.73;0.73;;;;;;;-6.73;86.67;103148.16;5094167;28;20109;-54
2024/01/09 03:14:49;;;;;;;0.80;0.80;;;;;;;-6.80;87.33;103151.44;5094411;28;20095;-55
2024/01/09 03:17:14;;;;;;;0.73;0.73;;;;;;;-6.81;87.69;103148.72;5093311;28;20379;-56
2024/01/09 03:19:42;;;;;;;0.90;0.90;;;;;;;-6.68;87.49;103166.34;5094161;28;20047;-55
2024/01/09 03:22:08;;;;;;;0.80;0.80;;;;;;;-6.80;87.27;103161.47;5094491;28;20028;-56
2024/01/09 03:24:33;;;;;;;0.70;0.70;;;;;;;-6.80;87.27;103160.56;5093256;28;20031;-56
2024/01/09 03:26:58;;;;;;;0.70;0.70;;;;;;;-6.79;87.74;103152.31;5094163;28;20020;-56
2024/01/09 03:29:23;;;;;;;0.70;0.70;;;;;;;-6.83;87.48;103160.13;5093830;28;20028;-55
2024/01/09 03:31:50;;;;;;;0.70;0.70;;;;;;;-6.72;87.26;103159.09;5093341;28;20020;-55
2024/01/09 03:34:15;;;;;;;0.90;0.90;;;;;;;-6.81;87.77;103154.63;5093697;28;20566;-56
2024/01/09 03:36:43;;;;;;;0.70;0.70;;;;;;;-6.72;87.50;103161.63;5094225;28;20103;-56
2024/01/09 03:39:10;;;;;;;0.70;0.70;;;;;;;-6.74;88.21;103153.84;5093036;28;20052;-56
2024/01/09 03:41:35;;;;;;;0.82;0.82;;;;;;;-6.72;87.34;103165.00;5094045;28;20103;-56
2024/01/09 03:44:01;;;;;;;0.70;0.70;;;;;;;-6.70;87.26;103161.13;5093952;28;20149;-56
2024/01/09 03:46:26;;;;;;;0.80;0.80;;;;;;;-6.69;87.45;103159.50;5092823;28;20028;-56
2024/01/09 03:48:51;;;;;;;0.60;0.60;;;;;;;-6.80;87.76;103145.53;5094027;28;20024;-56
2024/01/09 03:51:17;;;;;;;0.70;0.70;;;;;;;-6.81;87.32;103138.69;5093479;28;20349;-56
2024/01/09 03:53:42;;;;;;;0.73;0.73;;;;;;;-6.73;87.84;103153.16;5093139;28;20077;-56
2024/01/09 03:56:07;;;;;;;0.75;0.75;;;;;;;-6.80;88.22;103145.53;5093881;28;20353;-56
2024/01/09 03:58:33;;;;;;;0.70;0.70;;;;;;;-6.79;87.81;103148.22;5093274;28;20110;-56
2024/01/09 04:00:58;;;;;;;0.80;0.80;;;;;;;-6.82;87.79;103141.88;5092796;28;20032;-57
2024/01/09 04:03:23;;;;;;;0.80;0.80;;;;;;;-6.84;88.46;103148.28;5093430;28;20472;-55
2024/01/09 04:05:49;;;;;;;0.75;0.75;;;;;;;-6.88;89.13;103141.03;5092970;28;20119;-55
2024/01/09 04:08:14;;;;;;;0.73;0.73;;;;;;;-6.78;88.75;103149.13;5092984;28;20059;-56
2024/01/09 04:10:40;;;;;;;0.90;0.90;;;;;;;-6.91;89.81;103151.56;5093182;28;20485;-56
2024/01/09 04:13:05;;;;;;;0.80;0.80;;;;;;;-6.95;90.03;103150.22;5092761;28;20384;-56
2024/01/09 04:15:32;;;;;;;0.63;0.63;;;;;;;-6.85;89.75;103149.00;5093210;28;20020;-56
2024/01/09 04:17:57;;;;;;;0.80;0.80;;;;;;;-6.82;89.25;103151.91;5093473;28;20095;-56
2024/01/09 04:20:23;;;;;;;0.80;0.80;;;;;;;-6.95;90.48;103149.34;5092323;28;20460;-57
2024/01/09 04:22:48;;;;;;;0.75;0.75;;;;;;;-6.86;90.31;103149.69;5093593;28;20031;-56
2024/01/09 04:25:14;;;;;;;0.70;0.70;;;;;;;-6.89;89.49;103147.69;5093017;28;20032;-55
2024/01/09 04:27:39;;;;;;;0.80;0.80;;;;;;;-6.83;89.43;103153.53;5092600;28;20107;-57
2024/01/09 04:30:06;;;;;;;0.75;0.75;;;;;;;-6.87;89.16;103142.88;5093052;28;20050;-57
2024/01/09 04:32:31;;;;;;;0.57;0.57;;;;;;;-6.89;88.31;103144.25;5093007;28;20031;-55
2024/01/09 04:34:57;;;;;;;0.70;0.70;;;;;;;-6.79;88.52;103149.81;5092698;28;20028;-56
2024/01/09 04:37:22;;;;;;;0.70;0.70;;;;;;;-6.78;88.30;103152.56;5092868;28;20428;-57
2024/01/09 04:39:48;;;;;;;0.73;0.73;;;;;;;-6.89;88.47;103144.25;5092922;28;20044;-57
2024/01/09 04:42:13;;;;;;;0.90;0.90;;;;;;;-6.80;89.04;103140.50;5091857;28;20024;-57
2024/01/09 04:44:38;;;;;;;0.70;0.70;;;;;;;-6.79;88.71;103144.78;5092930;28;20020;-57
2024/01/09 04:47:04;;;;;;;0.70;0.70;;;;;;;-6.87;88.90;103142.88;5092899;28;20024;-57
2024/01/09 04:49:29;;;;;;;0.80;0.80;;;;;;;-6.80;88.75;103141.41;5092116;28;20036;-56
2024/01/09 04:51:54;;;;;;;0.80;0.80;;;;;;;-6.91;88.48;103150.66;5093095;28;20070;-56
2024/01/09 04:54:19;;;;;;;0.70;0.70;;;;;;;-6.96;88.98;103143.44;5092557;28;20103;-55
2024/01/09 04:56:45;;;;;;;0.90;0.90;;;;;;;-7.00;89.16;103143.69;5092197;28;20024;-56
2024/01/09 04:59:10;;;;;;;0.70;0.70;;;;;;;-6.87;89.94;103137.84;5092452;28;20039;-57
2024/01/09 05:01:36;;;;;;;0.73;0.73;;;;;;;-6.95;89.62;103139.31;5092780;28;20399;-57
2024/01/09 05:04:01;;;;;;;0.85;0.85;;;;;;;-6.99;89.69;103140.47;5092221;28;20020;-56
2024/01/09 05:06:26;;;;;;;0.70;0.70;;;;;;;-6.88;88.92;103141.97;5092707;28;20129;-57
2024/01/09 05:08:52;;;;;;;0.60;0.60;;;;;;;-6.88;89.35;103139.47;5092868;28;20490;-57
2024/01/09 05:11:17;;;;;;;0.70;0.70;;;;;;;-7.01;90.43;103143.47;5091817;28;20103;-57
2024/01/09 05:13:43;;;;;;;0.75;0.75;;;;;;;-7.04;90.06;103143.97;5092689;28;20100;-57
2024/01/09 05:16:08;;;;;;;0.65;0.65;;;;;;;-7.06;90.11;103144.44;5091701;28;20036;-57
2024/01/09 05:18:33;;;;;;;0.75;0.75;;;;;;;-7.08;90.15;103146.75;5092364;28;20030;-56
2024/01/09 05:20:58;;;;;;;0.65;0.65;;;;;;;-6.98;90.85;103141.41;5093480;28;20028;-57
2024/01/09 05:23:24;;;;;;;0.60;0.60;;;;;;;-7.03;90.36;103145.78;5095601;28;20439;-57
2024/01/09 05:25:49;;;;;;;0.73;0.73;;;;;;;-7.14;90.36;103141.81;5096810;28;20023;-57
2024/01/09 05:28:17;;;;;;;0.60;0.60;;;;;;;-7.01;90.40;103154.44;5095875;28;20054;-57
2024/01/09 05:30:43;;;;;;;0.85;0.85;;;;;;;-7.11;90.41;103147.22;5095902;28;20038;-57
2024/01/09 05:33:08;;;;;;;0.65;0.65;;;;;;;-7.14;91.42;103148.41;5096384;28;20024;-56
2024/01/09 05:35:34;;;;;;;0.80;0.80;;;;;;;-7.02;90.62;103145.09;5096232;28;20028;-56
2024/01/09 05:37:59;;;;;;;0.90;0.90;;;;;;;-7.08;91.18;103154.25;5095550;28;20020;-57
2024/01/09 05:40:24;;;;;;;0.85;0.85;;;;;;;-7.13;90.58;103146.13;5095846;28;20094;-55
2024/01/09 05:42:50;;;;;;;0.70;0.70;;;;;;;-7.12;91.17;103147.03;5096180;28;20091;-56
2024/01/09 05:45:15;;;;;;;0.80;0.80;;;;;;;-7.04;91.38;103146.47;5095223;28;20020;-56
2024/01/09 05:47:40;;;;;;;0.70;0.70;;;;;;;-7.15;91.13;103155.03;5096087;28;20031;-55
2024/01/09 05:50:07;;;;;;;0.90;0.90;;;;;;;-7.06;91.40;103147.88;5096272;28;20464;-56
2024/01/09 05:52:35;;;;;;;0.73;0.73;;;;;;;-7.04;91.47;103148.97;5094993;28;20025;-56
2024/01/09 05:55:01;;;;;;;0.70;0.70;;;;;;;-7.19;91.76;103142.78;5096009;28;20467;-56
2024/01/09 05:57:27;;;;;;;0.75;0.75;;;;;;;-7.24;92.70;103147.84;5095721;28;20027;-56
2024/01/09 05:59:52;;;;;;;0.68;0.68;;;;;;;-7.28;92.62;103142.41;5095027;28;20036;-57
2024/01/09 06:02:17;;;;;;;0.80;0.80;;;;;;;-7.14;92.35;103148.41;5095705;28;20024;-56
2024/01/09 06:04:43;;;;;;;0.80;0.80;;;;;;;-7.28;92.46;103146.53;5096012;28;20365;-57
2024/01/09 06:07:08;;;;;;;0.90;0.90;;;;;;;-7.25;93.52;103141.03;5095012;28;20392;-55
2024/01/09 06:09:33;;;;;;;0.80;0.80;;;;;;;-7.29;93.73;103144.72;5095473;28;20028;-57
2024/01/09 06:11:59;;;;;;;0.75;0.75;;;;;;;-7.29;93.78;103148.09;5095826;28;20024;-57
2024/01/09 06:14:24;;;;;;;0.80;0.80;;;;;;;-7.28;92.97;103142.41;5094524;28;20020;-55
2024/01/09 06:16:49;;;;;;;0.82;0.82;;;;;;;-7.26;93.88;103139.22;5095820;28;20372;-56
2024/01/09 06:19:14;;;;;;;0.75;0.75;;;;;;;-7.17;93.16;103148.00;5095325;28;20388;-57
2024/01/09 06:21:40;;;;;;;0.80;0.80;;;;;;;-7.32;94.33;103145.19;5094791;28;20028;-56
2024/01/09 06:24:05;;;;;;;0.90;0.90;;;;;;;-7.22;94.12;103146.47;5095552;28;20027;-57
2024/01/09 06:26:30;;;;;;;0.80;0.80;;;;;;;-7.21;94.28;103145.78;5094572;28;20024;-56
2024/01/09 06:28:56;;;;;;;0.85;0.85;;;;;;;-7.40;95.08;103145.72;5095333;28;20044;-57
2024/01/09 06:31:21;;;;;;;0.80;0.80;;;;;;;-7.27;95.25;103153.31;5094843;28;20051;-56
2024/01/09 06:33:46;;;;;;;0.80;0.80;;;;;;;-7.37;95.82;103155.25;5094366;28;20036;-56
2024/01/09 06:36:11;;;;;;;0.80;0.80;;;;;;;-7.43;96.30;103150.31;5095018;28;20020;-57
2024/01/09 06:38:37;;;;;;;0.80;0.80;;;;;;;-7.42;97.17;103159.66;5094912;28;20048;-57
2024/01/09 06:41:03;;;;;;;0.80;0.80;;;;;;;-7.33;96.78;103168.44;5094456;28;20028;-56
2024/01/09 06:43:28;;;;;;;0.70;0.70;;;;;;;-7.35;97.87;103164.78;5094881;28;20030;-57
2024/01/09 06:45:54;;;;;;;0.70;0.70;;;;;;;-7.31;96.76;103176.16;5095189;28;20028;-56
2024/01/09 06:48:19;;;;;;;0.70;0.70;;;;;;;-7.43;97.57;103170.34;5094107;28;20365;-56
2024/01/09 06:50:44;;;;;;;0.80;0.80;;;;;;;-7.43;97.83;103175.34;5094871;28;20031;-56
2024/01/09 06:53:10;;;;;;;0.77;0.77;;;;;;;-7.33;97.84;103180.97;5094595;28;20107;-56
2024/01/09 06:55:35;;;;;;;0.93;0.93;;;;;;;-7.33;97.48;103185.97;5094133;28;20464;-56
2024/01/09 06:58:02;;;;;;;0.80;0.80;;;;;;;-7.37;97.17;103180.31;5094615;28;20035;-56
2024/01/09 07:00:28;;;;;;;0.80;0.80;;;;;;;-7.32;96.32;103179.34;5094529;28;20081;-56
2024/01/09 07:02:54;;;;;;;0.90;0.90;;;;;;;-7.31;96.86;103182.09;5094018;28;20032;-56
2024/01/09 07:05:19;;;;;;;0.88;0.88;;;;;;;-7.43;97.72;103179.47;5094414;28;20047;-56
2024/01/09 07:07:44;;;;;;;0.80;0.80;;;;;;;-7.43;98.26;103176.97;5094728;28;20028;-55
2024/01/09 07:10:10;;;;;;;0.80;0.80;;;;;;;-7.45;97.85;103177.66;5093460;28;20030;-57
2024/01/09 07:12:35;;;;;;;0.80;0.80;;;;;;;-7.35;97.37;103187.34;5094256;28;20048;-56
2024/01/09 07:15:00;;;;;;;0.80;0.80;;;;;;;-7.49;97.73;103177.00;5094631;28;20482;-56
2024/01/09 07:17:25;;;;;;;0.73;0.73;;;;;;;-7.37;97.24;103178.72;5093427;28;20024;-56
2024/01/09 07:19:51;;;;;;;0.80;0.80;;;;;;;-7.35;96.93;103182.34;5094474;28;20383;-56
2024/01/09 07:22:16;;;;;;;0.70;0.70;;;;;;;-7.41;97.22;103181.50;5094084;28;20490;-57
2024/01/09 07:24:41;;;;;;;0.77;0.77;;;;;;;-7.48;96.71;103182.22;5093491;28;20020;-56
2024/01/09 07:27:06;;;;;;;0.60;0.60;;;;;;;-7.47;97.53;103183.16;5094300;28;20646;-56
2024/01/09 07:29:32;;;;;;;0.70;0.70;;;;;;;-7.36;97.61;103187.13;5093796;28;20076;-56
2024/01/09 07:31:57;;;;;;;0.90;0.90;;;;;;;-7.46;97.25;103184.97;5093609;28;20361;-56
2024/01/09 07:34:22;;;;;;;0.80;0.80;;;;;;;-7.45;97.09;103191.75;5093798;28;20076;-56
2024/01/09 07:36:47;;;;;;;0.80;0.80;;;;;;;-7.51;97.64;103195.94;5093499;28;20471;-56
2024/01/09 07:39:13;;;;;;;0.73;0.73;;;;;;;-7.47;97.88;103194.06;5093491;28;20044;-57
2024/01/09 07:41:38;;;;;;;0.70;0.70;;;;;;;-7.39;97.27;103202.66;5093873;28;20066;-56
2024/01/09 07:44:04;;;;;;;0.70;0.70;;;;;;;-7.38;97.31;103206.97;5092457;28;20051;-56
2024/01/09 07:46:30;;;;;;;0.98;0.98;;;;;;;-7.36;97.38;103203.09;5093675;28;20468;-57
2024/01/09 07:48:56;;;;;;;0.70;0.70;;;;;;;-7.43;97.33;103209.53;5093975;28;20044;-55
2024/01/09 07:51:21;;;;;;;0.80;0.80;;;;;;;-7.33;96.96;103212.63;5092837;28;20043;-57
2024/01/09 07:53:46;;;;;;;0.80;0.80;;;;;;;-7.37;96.65;103213.81;5093739;28;20426;-57
2024/01/09 07:56:17;;;;;;;0.80;0.80;;;;;;;-7.42;96.53;103222.28;5093431;28;20027;-56
2024/01/09 07:58:43;;;;;;;0.90;0.90;;;;;;;-7.43;96.53;103217.06;5093073;28;20035;-56
2024/01/09 08:01:09;;;;;;;0.80;0.80;;;;;;;-7.33;96.91;103211.03;5093332;28;20024;-56
2024/01/09 08:03:34;;;;;;;0.77;0.77;;;;;;;-7.38;96.46;103214.47;5093432;28;20122;-56
2024/01/09 08:05:59;;;;;;;0.70;0.70;;;;;;;-7.38;96.31;103217.00;5092875;28;20024;-57
2024/01/09 08:08:24;;;;;;;0.90;0.90;;;;;;;-7.28;96.34;103226.72;5093081;28;20036;-56
2024/01/09 08:10:50;;;;;;;0.70;0.70;;;;;;;-7.35;95.30;103214.91;5093450;28;20024;-56
2024/01/09 08:13:15;;;;;;;0.70;0.70;;;;;;;-7.31;95.99;103221.25;5092261;28;20028;-55
2024/01/09 08:15:40;;;;;;;0.85;0.85;;;;;;;-7.35;96.09;103224.03;5093447;28;20024;-56
2024/01/09 08:18:06;;;;;;;0.77;0.77;;;;;;;-7.34;96.25;103229.25;5093285;28;20035;-56
2024/01/09 08:20:31;;;;;;;0.80;0.80;;;;;;;-7.23;95.73;103229.84;5092390;28;20036;-56
2024/01/09 08:22:57;;;;;;;0.73;0.73;;;;;;;-7.30;96.21;103228.97;5093346;28;20030;-56
2024/01/09 08:25:23;;;;;;;0.70;0.70;;;;;;;-7.20;95.94;103226.16;5092996;28;20024;-56
2024/01/09 08:27:48;;;;;;;0.77;0.77;;;;;;;-7.29;95.45;103225.78;5092451;28;20077;-56
2024/01/09 08:30:14;;;;;;;0.80;0.80;;;;;;;-7.17;95.88;103225.69;5093107;28;20065;-56
2024/01/09 08:32:40;;;;;;;0.80;0.80;;;;;;;-7.21;94.74;103229.34;5093226;28;20069;-56
2024/01/09 08:35:06;;;;;;;0.80;0.80;;;;;;;-7.12;95.07;103233.13;5092220;28;20028;-56
2024/01/09 08:37:31;;;;;;;0.80;0.80;;;;;;;-7.18;93.82;103222.28;5092844;28;20024;-57
2024/01/09 08:39:56;;;;;;;0.80;0.80;;;;;;;-7.16;94.10;103222.50;5092542;28;20098;-56
2024/01/09 08:42:21;;;;;;;0.90;0.90;;;;;;;-7.11;93.59;103224.94;5092120;28;20043;-56
2024/01/09 08:44:47;;;;;;;0.70;0.70;;;;;;;-7.00;93.31;103233.91;5093208;28;20269;-56
2024/01/09 08:47:12;;;;;;;0.90;0.90;;;;;;;-7.04;93.24;103234.19;5091982;28;20024;-57
2024/01/09 08:49:38;;;;;;;0.80;0.80;;;;;;;-7.00;92.42;103236.44;5093102;28;20349;-56
2024/01/09 08:52:04;;;;;;;0.80;0.80;;;;;;;-6.89;92.39;103242.03;5092875;28;20039;-56
2024/01/09 08:54:30;;;;;;;0.80;0.80;;;;;;;-6.92;92.06;103234.09;5091871;28;20036;-56
2024/01/09 08:56:55;;;;;;;0.80;0.80;;;;;;;-6.86;90.10;103240.84;5096910;28;20047;-56
2024/01/09 08:59:20;;;;;;;0.73;0.73;;;;;;;-6.76;90.89;103249.63;5096684;28;20028;-56
2024/01/09 09:01:46;;;;;;;0.90;0.90;;;;;;;-6.80;89.81;103240.81;5096329;28;20020;-57
2024/01/09 09:04:11;;;;;;;0.80;0.80;;;;;;;-6.79;89.59;103237.56;5096576;28;20024;-56
2024/01/09 09:06:37;;;;;;;0.70;0.70;;;;;;;-6.77;89.55;103246.22;5096724;28;20032;-56
2024/01/09 09:09:02;;;;;;;0.90;0.90;;;;;;;-6.65;90.39;103244.50;5096287;28;20384;-55
2024/01/09 09:11:29;;;;;;;0.80;0.80;;;;;;;-6.65;89.25;103250.44;5096527;28;20485;-55
2024/01/09 09:13:54;;;;;;;0.80;0.80;;;;;;;-6.58;88.77;103248.75;5097005;28;20028;-56
2024/01/09 09:16:20;;;;;;;0.90;0.90;;;;;;;-6.49;88.42;103255.06;5095659;28;20433;-57
2024/01/09 09:18:45;;;;;;;0.77;0.77;;;;;;;-6.49;88.45;103248.41;5096595;28;20031;-55
2024/01/09 09:21:10;;;;;;;0.88;0.88;;;;;;;-6.35;86.63;103255.31;5096190;28;20055;-57
2024/01/09 09:23:36;;;;;;;0.80;0.80;;;;;;;-6.26;86.68;103245.63;5095386;28;20024;-56
2024/01/09 09:26:03;;;;;;;0.77;0.77;;;;;;;-6.18;84.49;103251.69;5096316;28;20536;-56
2024/01/09 09:28:28;;;;;;;0.80;0.80;;;;;;;-6.17;84.34;103241.84;5096243;28;20023;-55
2024/01/09 09:30:54;;;;;;;0.80;0.80;;;;;;;-6.16;82.71;103251.22;5095942;28;20089;-56
2024/01/09 09:33:20;;;;;;;0.80;0.80;;;;;;;-6.05;84.44;103250.13;5096205;28;20024;-57
2024/01/09 09:35:45;;;;;;;0.70;0.70;;;;;;;-6.02;84.21;103253.03;5096480;28;20047;-54
2024/01/09 09:38:10;;;;;;;0.80;0.80;;;;;;;-6.10;82.54;103243.59;5095408;28;20051;-58
2024/01/09 09:40:36;;;;;;;0.80;0.80;;;;;;;-5.98;83.07;103250.25;5095919;28;20124;-53
2024/01/09 09:43:03;;;;;;;0.65;0.65;;;;;;;-6.07;82.14;103244.00;5096261;28;20383;-55
2024/01/09 09:45:31;;;;;;;0.60;0.60;;;;;;;-5.92;83.96;103236.69;5095122;28;20032;-55
2024/01/09 09:47:58;;;;;;;0.80;0.80;;;;;;;-5.87;82.84;103246.66;5096102;28;20024;-56
2024/01/09 09:50:25;;;;;;;0.70;0.70;;;;;;;-5.97;81.20;103241.97;5095151;28;20055;-54
2024/01/09 09:52:51;;;;;;;0.80;0.80;;;;;;;-5.91;82.30;103246.00;5096127;28;20274;-56
2024/01/09 09:55:17;;;;;;;0.75;0.75;;;;;;;-5.79;83.25;103237.63;5095086;28;20024;-56
2024/01/09 09:57:43;;;;;;;0.55;0.55;;;;;;;-5.82;80.47;103242.25;5095317;28;20028;-56
2024/01/09 10:00:09;;;;;;;0.80;0.80;;;;;;;-5.71;79.68;103243.69;5095962;28;20035;-56
2024/01/09 10:02:41;;;;;;;0.75;0.75;;;;;;;-5.57;78.32;103248.03;5095859;28;20028;-54
2024/01/09 10:05:14;;;;;;;0.70;0.70;;;;;;;-5.38;77.48;103238.81;5095319;28;20051;-56
2024/01/09 10:07:43;;;;;;;0.80;0.80;;;;;;;-5.12;75.89;103245.66;5094339;28;20495;-56
2024/01/09 10:10:08;;;;;;;0.80;0.80;;;;;;;-4.88;73.47;103241.13;5095751;28;20032;-56
2024/01/09 10:12:34;;;;;;;0.70;0.70;;;;;;;-4.66;74.66;103240.69;5094896;28;20491;-56
2024/01/09 10:15:04;;;;;;;0.77;0.77;;;;;;;-4.52;70.34;103234.00;5095700;28;20024;-56
2024/01/09 10:17:29;;;;;;;0.70;0.70;;;;;;;-4.33;70.51;103233.13;5095075;28;20510;-56
2024/01/09 10:19:54;;;;;;;0.60;0.60;;;;;;;-4.27;69.02;103224.56;5094357;28;20028;-56
2024/01/09 10:22:20;;;;;;;0.60;0.60;;;;;;;-4.15;67.54;103219.47;5095306;28;20029;-56
2024/01/09 10:24:45;;;;;;;0.63;0.63;;;;;;;-4.19;67.11;103216.38;5095593;28;20024;-57
2024/01/09 10:27:11;;;;;;;0.70;0.70;;;;;;;-4.28;66.03;103225.28;5094531;28;20124;-56
2024/01/09 10:29:42;;;;;;;0.68;0.68;;;;;;;-4.29;66.76;103219.34;5095255;28;20025;-58
2024/01/09 10:32:08;;;;;;;0.60;0.60;;;;;;;-4.34;66.25;103218.75;5095232;28;20521;-56
2024/01/09 10:34:33;;;;;;;0.70;0.70;;;;;;;-4.18;67.21;103225.75;5093928;28;20035;-56
2024/01/09 10:37:06;;;;;;;0.70;0.70;;;;;;;-4.29;66.99;103219.34;5095137;28;20066;-57
2024/01/09 10:39:32;;;;;;;0.60;0.60;;;;;;;-4.25;65.96;103210.56;5094091;28;20543;-56
2024/01/09 10:42:03;;;;;;;0.70;0.70;;;;;;;-4.22;65.66;103205.91;5095098;28;20181;-56
2024/01/09 10:44:30;;;;;;;0.60;0.60;;;;;;;-4.19;64.22;103211.34;5094703;28;20039;-56
2024/01/09 10:46:56;;;;;;;0.70;0.70;;;;;;;-4.10;65.58;103206.56;5094502;28;20074;-56
2024/01/09 10:49:24;;;;;;;0.50;0.50;;;;;;;-4.01;64.89;103208.63;5094664;28;20028;-56
2024/01/09 10:51:51;;;;;;;0.70;0.70;;;;;;;-3.77;65.84;103199.84;5094884;28;20490;-56
2024/01/09 10:54:18;;;;;;;0.63;0.63;;;;;;;-3.61;64.36;103197.63;5093810;28;20028;-55
2024/01/09 10:56:44;;;;;;;0.70;0.70;;;;;;;-3.45;63.07;103190.31;5095001;28;20095;-56
2024/01/09 10:59:11;;;;;;;0.55;0.55;;;;;;;-3.27;62.15;103190.81;5094200;28;20420;-56
2024/01/09 11:01:36;;;;;;;0.60;0.60;;;;;;;-3.12;60.90;103186.72;5094073;28;20028;-57
2024/01/09 11:04:02;;;;;;;0.60;0.60;;;;;;;-3.02;59.34;103180.47;5094230;28;20020;-57
2024/01/09 11:06:29;;;;;;;0.95;0.63;;;;;;;-2.75;59.74;103182.03;5094534;28;20020;-56
2024/01/09 11:08:59;;;;;;;0.45;0.45;;;;;;;-2.76;58.53;103184.34;5093725;28;20455;-56
2024/01/09 11:11:26;;;;;;;0.60;0.60;;;;;;;-2.43;58.68;103179.03;5094349;28;20024;-57
2024/01/09 11:13:53;;;;;;;0.60;0.60;;;;;;;-2.22;57.57;103178.16;5094269;28;20020;-57
2024/01/09 11:16:21;;;;;;;0.52;0.52;;;;;;;-2.20;56.72;103161.56;5093386;28;20070;-57